Oxnard, California
Current Conditions -  °F | °C
As of 9:51 PM on Saturday 22 Nov 2014 (Local Time) from KOXR Reporting Station
Clear Clear  
Wind Chill: 14°   Ceiling: Unl
Heat Index: 14°   Visibility: 10mi
Dew Point: 10°   Wind: 3mph
Humidity: 75%   Direction: 90°E
Pressure: 30.03"   Gusts: NA
Location:  34.2°N, 119.18°W
Report Text: KOXR 230551Z AUTO 09003KT 10SM CLR 14/10 A3003 RMK AO2 SLP167 T01440100 10217 20144 51016
Loading
Personal Weather Stations






























Interactive Weather Map New forecast layout! Learn more

10-Day Weather Forecast

Advertisements
Track Severe Weather on mobile